Time,TemperatureF,DewpointF,PressureIn,WindDirection,WindDirectionDegrees,WindSpeedMPH,WindSpeedGustMPH,Humidity,HourlyPrecipIn,Conditions,Clouds,dailyrainin,SoftwareType,DateUTC
2013-04-29 00:21:00,56.0,27.0,-100.00,North,352,4.0,8.0,32,0.00,,,0.00,,2013-04-29 07:21:00,
2013-04-29 00:32:00,56.0,27.0,-100.00,North,352,4.0,8.0,32,0.00,,,0.00,,2013-04-29 07:32:00,
2013-04-29 00:41:00,56.0,27.0,-100.00,North,352,4.0,8.0,32,0.00,,,0.00,,2013-04-29 07:41:00,
2013-04-29 00:52:00,56.0,27.0,-100.00,North,352,4.0,8.0,32,0.00,,,0.00,,2013-04-29 07:52:00,
2013-04-29 01:21:00,54.0,28.0,-100.00,NNW,341,4.0,9.0,36,0.00,,,0.00,,2013-04-29 08:21:00,
2013-04-29 01:31:00,54.0,28.0,-100.00,NNW,341,4.0,9.0,36,0.00,,,0.00,,2013-04-29 08:31:00,
2013-04-29 01:42:00,54.0,28.0,-100.00,NNW,341,4.0,9.0,36,0.00,,,0.00,,2013-04-29 08:42:00,
2013-04-29 01:51:00,54.0,28.0,-100.00,NNW,341,4.0,9.0,36,0.00,,,0.00,,2013-04-29 08:51:00,
2013-04-29 02:12:00,54.0,21.0,-100.00,North,356,3.0,6.0,27,0.00,,,0.00,,2013-04-29 09:12:00,
2013-04-29 02:21:00,54.0,21.0,-100.00,North,356,3.0,6.0,27,0.00,,,0.00,,2013-04-29 09:21:00,
2013-04-29 02:32:00,54.0,21.0,-100.00,North,356,3.0,6.0,27,0.00,,,0.00,,2013-04-29 09:32:00,
2013-04-29 02:42:00,54.0,21.0,-100.00,North,356,3.0,6.0,27,0.00,,,0.00,,2013-04-29 09:42:00,
2013-04-29 02:52:00,54.0,21.0,-100.00,North,356,3.0,6.0,27,0.00,,,0.00,,2013-04-29 09:52:00,
2013-04-29 03:12:00,48.0,22.0,-100.00,SE,131,2.0,6.0,35,0.00,,,0.00,,2013-04-29 10:12:00,
2013-04-29 03:23:00,48.0,22.0,-100.00,SE,131,2.0,6.0,35,0.00,,,0.00,,2013-04-29 10:23:00,
2013-04-29 04:12:00,50.0,-1.0,-100.00,SE,124,2.0,6.0,12,-99.99,,,0.00,,2013-04-29 11:12:00,
2013-04-29 04:21:00,50.0,-1.0,-100.00,SE,124,2.0,6.0,12,-99.99,,,0.00,,2013-04-29 11:21:00,
2013-04-29 05:12:00,49.0,7.0,-100.00,ESE,122,3.0,4.0,18,0.00,,,-99.99,,2013-04-29 12:12:00,
2013-04-29 05:22:00,49.0,7.0,-100.00,ESE,122,3.0,4.0,18,0.00,,,-99.99,,2013-04-29 12:22:00,
2013-04-29 05:31:00,49.0,7.0,-100.00,ESE,122,3.0,4.0,18,0.00,,,-99.99,,2013-04-29 12:31:00,
2013-04-29 06:21:00,49.0,16.0,-100.00,SE,135,2.0,5.0,26,-99.99,,,0.00,,2013-04-29 13:21:00,
2013-04-29 06:31:00,49.0,16.0,-100.00,SE,135,2.0,5.0,26,-99.99,,,0.00,,2013-04-29 13:31:00,
2013-04-29 07:21:00,48.0,14.0,-100.00,ESE,120,3.0,5.0,25,0.00,,,0.00,,2013-04-29 14:21:00,
2013-04-29 07:32:00,48.0,14.0,-100.00,ESE,120,3.0,5.0,25,0.00,,,0.00,,2013-04-29 14:32:00,
2013-04-29 08:12:00,53.0,24.0,-100.00,East,84,3.0,5.0,32,0.00,,,0.00,,2013-04-29 15:12:00,
2013-04-29 08:21:00,53.0,24.0,-100.00,East,84,3.0,5.0,32,0.00,,,0.00,,2013-04-29 15:21:00,
2013-04-29 08:33:00,53.0,24.0,-100.00,East,84,3.0,5.0,32,0.00,,,0.00,,2013-04-29 15:33:00,
2013-04-29 08:42:00,53.0,24.0,-100.00,East,84,3.0,5.0,32,0.00,,,0.00,,2013-04-29 15:42:00,
2013-04-29 08:52:00,53.0,24.0,-100.00,East,84,3.0,5.0,32,0.00,,,0.00,,2013-04-29 15:52:00,
2013-04-29 09:23:00,61.0,25.0,-100.00,West,278,3.0,5.0,25,0.00,,,0.00,,2013-04-29 16:23:00,
2013-04-29 09:32:00,61.0,25.0,-100.00,West,278,3.0,5.0,25,0.00,,,0.00,,2013-04-29 16:32:00,
2013-04-29 09:42:00,61.0,25.0,-100.00,West,278,3.0,5.0,25,0.00,,,0.00,,2013-04-29 16:42:00,
2013-04-29 09:52:00,61.0,25.0,-100.00,West,278,3.0,5.0,25,0.00,,,0.00,,2013-04-29 16:52:00,
2013-04-29 10:12:00,64.0,31.0,-100.00,WNW,286,4.0,7.0,29,0.00,,,0.00,,2013-04-29 17:12:00,
2013-04-29 10:22:00,64.0,31.0,-100.00,WNW,286,4.0,7.0,29,0.00,,,0.00,,2013-04-29 17:22:00,
2013-04-29 10:32:00,64.0,31.0,-100.00,WNW,286,4.0,7.0,29,0.00,,,0.00,,2013-04-29 17:32:00,
2013-04-29 10:42:00,64.0,31.0,-100.00,WNW,286,4.0,7.0,29,0.00,,,0.00,,2013-04-29 17:42:00,
2013-04-29 10:52:00,64.0,31.0,-100.00,WNW,286,4.0,7.0,29,0.00,,,0.00,,2013-04-29 17:52:00,
2013-04-29 11:13:00,68.0,33.0,-100.00,WNW,284,5.0,9.0,27,0.00,,,0.00,,2013-04-29 18:13:00,
2013-04-29 11:22:00,68.0,33.0,-100.00,WNW,284,5.0,9.0,27,0.00,,,0.00,,2013-04-29 18:22:00,
2013-04-29 11:31:00,68.0,33.0,-100.00,WNW,284,5.0,9.0,27,0.00,,,0.00,,2013-04-29 18:31:00,
2013-04-29 11:41:00,68.0,33.0,-100.00,WNW,284,5.0,9.0,27,0.00,,,0.00,,2013-04-29 18:41:00,
2013-04-29 11:51:00,68.0,33.0,-100.00,WNW,284,5.0,9.0,27,0.00,,,0.00,,2013-04-29 18:51:00,
2013-04-29 12:11:00,69.0,34.0,-100.00,WNW,294,6.0,10.0,27,0.00,,,0.00,,2013-04-29 19:11:00,
2013-04-29 12:21:00,69.0,34.0,-100.00,WNW,294,6.0,10.0,27,0.00,,,0.00,,2013-04-29 19:21:00,
2013-04-29 12:31:00,69.0,34.0,-100.00,WNW,294,6.0,10.0,27,0.00,,,0.00,,2013-04-29 19:31:00,
2013-04-29 12:41:00,69.0,34.0,-100.00,WNW,294,6.0,10.0,27,0.00,,,0.00,,2013-04-29 19:41:00,
2013-04-29 12:51:00,69.0,34.0,-100.00,WNW,294,6.0,10.0,27,0.00,,,0.00,,2013-04-29 19:51:00,
2013-04-29 13:11:00,69.0,38.0,-100.00,WNW,287,6.0,10.0,32,0.00,,,0.00,,2013-04-29 20:11:00,
2013-04-29 13:21:00,69.0,38.0,-100.00,WNW,287,6.0,10.0,32,0.00,,,0.00,,2013-04-29 20:21:00,
2013-04-29 13:32:00,69.0,38.0,-100.00,WNW,287,6.0,10.0,32,0.00,,,0.00,,2013-04-29 20:32:00,
2013-04-29 13:42:00,69.0,38.0,-100.00,WNW,287,6.0,10.0,32,0.00,,,0.00,,2013-04-29 20:42:00,
2013-04-29 13:51:00,69.0,38.0,-100.00,WNW,287,6.0,10.0,32,0.00,,,0.00,,2013-04-29 20:51:00,
2013-04-29 13:53:00,71.0,43.0,-100.00,WNW,285,6.0,11.0,36,0.00,,,0.00,,2013-04-29 20:53:00,
2013-04-29 14:21:00,71.0,43.0,-100.00,WNW,285,6.0,11.0,36,0.00,,,0.00,,2013-04-29 21:21:00,
2013-04-29 14:33:00,71.0,43.0,-100.00,WNW,285,6.0,11.0,36,0.00,,,0.00,,2013-04-29 21:33:00,
2013-04-29 14:42:00,71.0,43.0,-100.00,WNW,285,6.0,11.0,36,0.00,,,0.00,,2013-04-29 21:42:00,
2013-04-29 15:23:00,69.0,41.0,-100.00,WNW,291,7.0,14.0,36,0.00,,,0.00,,2013-04-29 22:23:00,
2013-04-29 15:32:00,69.0,41.0,-100.00,WNW,291,7.0,14.0,36,0.00,,,0.00,,2013-04-29 22:32:00,
2013-04-29 15:42:00,69.0,41.0,-100.00,WNW,291,7.0,14.0,36,0.00,,,0.00,,2013-04-29 22:42:00,
2013-04-29 15:52:00,69.0,41.0,-100.00,WNW,291,7.0,14.0,36,0.00,,,0.00,,2013-04-29 22:52:00,
2013-04-29 16:11:00,70.0,40.0,-100.00,WNW,290,7.0,13.0,33,0.00,,,0.00,,2013-04-29 23:11:00,
2013-04-29 16:22:00,70.0,40.0,-100.00,WNW,290,7.0,13.0,33,0.00,,,0.00,,2013-04-29 23:22:00,
2013-04-29 16:32:00,70.0,40.0,-100.00,WNW,290,7.0,13.0,33,0.00,,,0.00,,2013-04-29 23:32:00,
2013-04-29 16:42:00,70.0,40.0,-100.00,WNW,290,7.0,13.0,33,0.00,,,0.00,,2013-04-29 23:42:00,
2013-04-29 16:52:00,70.0,40.0,-100.00,WNW,290,7.0,13.0,33,0.00,,,0.00,,2013-04-29 23:52:00,
2013-04-29 17:21:00,69.0,39.0,-100.00,WNW,298,7.0,12.0,33,0.00,,,0.00,,2013-04-30 00:21:00,
2013-04-29 17:32:00,69.0,39.0,-100.00,WNW,298,7.0,12.0,33,0.00,,,0.00,,2013-04-30 00:32:00,
2013-04-29 17:41:00,69.0,39.0,-100.00,WNW,298,7.0,12.0,33,0.00,,,0.00,,2013-04-30 00:41:00,
2013-04-29 17:51:00,69.0,39.0,-100.00,WNW,298,7.0,12.0,33,0.00,,,0.00,,2013-04-30 00:51:00,
2013-04-29 18:21:00,66.0,35.0,-100.00,WNW,296,8.0,13.0,32,0.00,,,0.00,,2013-04-30 01:21:00,
2013-04-29 18:32:00,66.0,35.0,-100.00,WNW,296,8.0,13.0,32,0.00,,,0.00,,2013-04-30 01:32:00,
2013-04-29 18:41:00,66.0,35.0,-100.00,WNW,296,8.0,13.0,32,0.00,,,0.00,,2013-04-30 01:41:00,
2013-04-29 18:51:00,66.0,35.0,-100.00,WNW,296,8.0,13.0,32,0.00,,,0.00,,2013-04-30 01:51:00,
2013-04-29 19:21:00,64.0,32.0,-100.00,WNW,296,6.0,12.0,30,0.00,,,0.00,,2013-04-30 02:21:00,
2013-04-29 19:31:00,64.0,32.0,-100.00,WNW,296,6.0,12.0,30,0.00,,,0.00,,2013-04-30 02:31:00,
2013-04-29 19:41:00,64.0,32.0,-100.00,WNW,296,6.0,12.0,30,0.00,,,0.00,,2013-04-30 02:41:00,
2013-04-29 19:51:00,64.0,32.0,-100.00,WNW,296,6.0,12.0,30,0.00,,,0.00,,2013-04-30 02:51:00,
2013-04-29 20:21:00,59.0,34.0,-100.00,WNW,298,5.0,9.0,39,0.00,,,0.00,,2013-04-30 03:21:00,
2013-04-29 20:33:00,59.0,34.0,-100.00,WNW,298,5.0,9.0,39,0.00,,,0.00,,2013-04-30 03:33:00,
2013-04-29 20:42:00,59.0,34.0,-100.00,WNW,298,5.0,9.0,39,0.00,,,0.00,,2013-04-30 03:42:00,
2013-04-29 20:52:00,59.0,34.0,-100.00,WNW,298,5.0,9.0,39,0.00,,,0.00,,2013-04-30 03:52:00,
2013-04-29 23:21:00,56.0,38.0,-100.00,NW,314,5.0,12.0,51,-99.99,,,0.00,,2013-04-30 06:21:00,
2013-04-29 23:31:00,56.0,38.0,-100.00,NW,314,5.0,12.0,51,-99.99,,,0.00,,2013-04-30 06:31:00,
2013-04-29 23:41:00,56.0,38.0,-100.00,NW,314,5.0,12.0,51,-99.99,,,0.00,,2013-04-30 06:41:00,
2013-04-29 23:52:00,56.0,38.0,-100.00,NW,314,5.0,12.0,51,-99.99,,,0.00,,2013-04-30 06:52:00,